createdAt,value
2018-09-16T00:02:04.112Z,95957.98
2018-09-16T00:04:32.753Z,95956.20
2018-09-16T00:07:01.449Z,95947.36
2018-09-16T00:09:30.131Z,95952.04
2018-09-16T00:11:58.788Z,95955.41
2018-09-16T00:14:27.678Z,95950.89
2018-09-16T00:16:56.377Z,95948.51
2018-09-16T00:19:25.064Z,95944.06
2018-09-16T00:21:53.756Z,95939.02
2018-09-16T00:24:22.393Z,95941.02
2018-09-16T00:26:51.070Z,95943.15
2018-09-16T00:29:19.734Z,95935.10
2018-09-16T00:31:52.537Z,95948.00
2018-09-16T00:34:21.162Z,95945.47
2018-09-16T00:36:49.824Z,95945.11
2018-09-16T00:39:18.547Z,95941.84
2018-09-16T00:41:47.228Z,95943.25
2018-09-16T00:44:15.894Z,95945.83
2018-09-16T00:46:44.667Z,95936.31
2018-09-16T00:49:13.312Z,95936.43
2018-09-16T00:51:42.834Z,95948.88
2018-09-16T00:54:11.511Z,95953.82
2018-09-16T00:56:40.155Z,95945.20
2018-09-16T00:59:08.823Z,95938.16
2018-09-16T01:01:37.470Z,95941.15
2018-09-16T01:04:06.262Z,95939.70
2018-09-16T01:06:37.486Z,95941.90
2018-09-16T01:09:10.622Z,95943.84
2018-09-16T01:11:39.318Z,95945.93
2018-09-16T01:14:08.790Z,95940.84
2018-09-16T01:16:38.379Z,95742.12
2018-09-16T01:19:07.594Z,95939.63
2018-09-16T01:21:36.789Z,95940.46
2018-09-16T01:24:05.862Z,95935.91
2018-09-16T01:26:34.810Z,95931.16
2018-09-16T01:29:03.465Z,95939.75
2018-09-16T01:31:32.137Z,95935.64
2018-09-16T01:34:00.828Z,95933.56
2018-09-16T01:36:29.491Z,95941.34
2018-09-16T01:38:58.295Z,95937.84
2018-09-16T01:41:26.987Z,95941.16
2018-09-16T01:43:55.661Z,95948.67
2018-09-16T01:46:24.330Z,95949.88
2018-09-16T01:48:53.078Z,95921.38
2018-09-16T01:51:21.735Z,95951.67
2018-09-16T01:53:50.412Z,95953.95
2018-09-16T01:56:19.062Z,95948.48
2018-09-16T01:58:47.747Z,95954.74
2018-09-16T02:01:16.374Z,95956.53
2018-09-16T02:03:45.073Z,95952.23
2018-09-16T02:06:13.742Z,95960.16
2018-09-16T02:08:42.386Z,95951.22
2018-09-16T02:11:11.083Z,95957.44
2018-09-16T02:13:39.748Z,95962.52
2018-09-16T02:16:08.388Z,95957.05
2018-09-16T02:18:37.012Z,95958.61
2018-09-16T02:21:05.689Z,95960.33
2018-09-16T02:23:34.378Z,95966.09
2018-09-16T02:26:03.088Z,95971.44
2018-09-16T02:28:31.747Z,95963.77
2018-09-16T02:31:00.413Z,95967.94
2018-09-16T02:33:29.088Z,95971.02
2018-09-16T02:35:57.767Z,95973.94
2018-09-16T02:38:26.404Z,95976.41
2018-09-16T02:40:55.163Z,95981.80
2018-09-16T02:43:24.048Z,95973.27
2018-09-16T02:45:52.730Z,95979.76
2018-09-16T02:48:21.387Z,95981.89
2018-09-16T02:50:50.098Z,95986.35
2018-09-16T02:53:18.744Z,95987.68
2018-09-16T02:55:47.430Z,95985.52
2018-09-16T02:58:16.160Z,95981.63
2018-09-16T03:00:44.923Z,95980.46
2018-09-16T03:03:13.598Z,95975.77
2018-09-16T03:05:48.288Z,95979.25
2018-09-16T03:08:17.351Z,95978.67
2018-09-16T03:10:46.256Z,95980.38
2018-09-16T03:13:15.150Z,95988.41
2018-09-16T03:15:43.822Z,95936.44
2018-09-16T03:18:12.484Z,95985.11
2018-09-16T03:20:41.197Z,95990.56
2018-09-16T03:23:09.876Z,95989.12
2018-09-16T03:25:38.524Z,95984.83
2018-09-16T03:28:07.212Z,95982.61
2018-09-16T03:30:35.835Z,95982.61
2018-09-16T03:33:04.523Z,95980.03
2018-09-16T03:35:33.195Z,95983.33
2018-09-16T03:38:01.930Z,95976.08
2018-09-16T03:40:30.551Z,95982.45
2018-09-16T03:42:59.218Z,95981.97
2018-09-16T03:45:27.877Z,95977.80
2018-09-16T03:47:56.486Z,95981.12
2018-09-16T03:50:25.200Z,95985.78
2018-09-16T03:52:53.959Z,95984.42
2018-09-16T03:55:22.614Z,95985.50
2018-09-16T03:57:51.287Z,95984.05
2018-09-16T04:00:19.939Z,95987.34
2018-09-16T04:02:48.562Z,95991.30
2018-09-16T04:05:19.705Z,95990.50
2018-09-16T04:07:49.416Z,95987.72
2018-09-16T04:10:18.133Z,95986.64
2018-09-16T04:12:46.976Z,95998.34
2018-09-16T04:15:15.711Z,95991.86
2018-09-16T04:17:44.355Z,96001.64
2018-09-16T04:20:13.012Z,95996.45
2018-09-16T04:22:41.734Z,96005.02
2018-09-16T04:25:10.420Z,95999.73
2018-09-16T04:27:39.078Z,95999.57
2018-09-16T04:30:08.118Z,96011.97
2018-09-16T04:32:37.152Z,96018.12
2018-09-16T04:35:06.134Z,96015.28
2018-09-16T04:37:38.322Z,96014.52
2018-09-16T04:40:07.328Z,96015.35
2018-09-16T04:42:35.980Z,96014.94
2018-09-16T04:45:04.757Z,96019.17
2018-09-16T04:47:33.413Z,96019.23
2018-09-16T04:50:02.179Z,96026.90
2018-09-16T04:52:30.754Z,96026.66
2018-09-16T04:54:59.372Z,96024.48
2018-09-16T04:57:27.999Z,96026.56
2018-09-16T04:59:56.660Z,96031.92
2018-09-16T05:02:25.300Z,96030.15
2018-09-16T05:04:53.954Z,96038.44
2018-09-16T05:07:22.596Z,96029.58
2018-09-16T05:09:51.211Z,95773.75
2018-09-16T05:12:19.876Z,96033.09
2018-09-16T05:14:48.553Z,96042.30
2018-09-16T05:17:17.234Z,96040.77
2018-09-16T05:19:45.942Z,96047.89
2018-09-16T05:22:14.626Z,96043.05
2018-09-16T05:24:43.384Z,96054.92
2018-09-16T05:27:12.027Z,96056.05
2018-09-16T05:29:40.696Z,96052.42
2018-09-16T05:32:09.367Z,96059.48
2018-09-16T05:34:38.126Z,96046.97
2018-09-16T05:37:07.111Z,96051.30
2018-09-16T05:39:35.849Z,96054.45
2018-09-16T05:42:05.448Z,96060.39
2018-09-16T05:44:34.187Z,96060.98
2018-09-16T05:47:02.831Z,96064.16
2018-09-16T05:49:31.496Z,96060.05
2018-09-16T05:52:00.170Z,96064.76
2018-09-16T05:54:28.916Z,96061.41
2018-09-16T05:56:57.541Z,96059.02
2018-09-16T05:59:26.226Z,96063.17
2018-09-16T06:01:54.912Z,96058.28
2018-09-16T06:04:23.576Z,96057.28
2018-09-16T06:06:52.280Z,96054.50
2018-09-16T06:09:20.897Z,96046.08
2018-09-16T06:11:49.517Z,96052.77
2018-09-16T06:14:18.163Z,96043.91
2018-09-16T06:16:46.806Z,96049.41
2018-09-16T06:19:15.503Z,96054.76
2018-09-16T06:21:44.138Z,96051.35
2018-09-16T06:24:12.766Z,96052.52
2018-09-16T06:26:41.430Z,96062.59
2018-09-16T06:29:10.079Z,96062.69
2018-09-16T06:31:38.726Z,96066.45
2018-09-16T06:34:07.425Z,96065.16
2018-09-16T06:36:36.110Z,96056.09
2018-09-16T06:39:07.188Z,96058.39
2018-09-16T06:41:35.851Z,96062.77
2018-09-16T06:44:04.554Z,96061.58
2018-09-16T06:46:33.260Z,96063.07
2018-09-16T06:49:01.998Z,96065.03
2018-09-16T06:51:30.711Z,96074.89
2018-09-16T06:53:59.485Z,96070.81
2018-09-16T06:56:28.200Z,96066.15
2018-09-16T06:58:57.154Z,96059.14
2018-09-16T07:01:26.076Z,96056.18
2018-09-16T07:03:55.160Z,96061.95
2018-09-16T07:06:23.805Z,96058.73
2018-09-16T07:08:52.448Z,96064.90
2018-09-16T07:11:21.115Z,96061.20
2018-09-16T07:13:49.781Z,96060.78
2018-09-16T07:16:18.446Z,95775.32
2018-09-16T07:18:47.099Z,96066.60
2018-09-16T07:21:15.762Z,96069.84
2018-09-16T07:23:44.434Z,96064.67
2018-09-16T07:26:13.103Z,96079.70
2018-09-16T07:28:41.787Z,96063.62
2018-09-16T07:31:10.480Z,96062.45
2018-09-16T07:33:39.144Z,96072.41
2018-09-16T07:36:07.772Z,96070.88
2018-09-16T07:38:36.409Z,96075.27
2018-09-16T07:41:05.041Z,96058.31
2018-09-16T07:43:33.702Z,96055.67
2018-09-16T07:46:02.421Z,96059.80
2018-09-16T07:48:31.074Z,96062.41
2018-09-16T07:50:59.772Z,96055.23
2018-09-16T07:53:28.397Z,96064.06
2018-09-16T07:55:57.057Z,96054.91
2018-09-16T07:58:25.748Z,96067.45
2018-09-16T08:00:54.410Z,96058.45
2018-09-16T08:03:23.089Z,96069.67
2018-09-16T08:05:51.775Z,96081.43
2018-09-16T08:08:20.574Z,96085.29
2018-09-16T08:10:49.353Z,96088.23
2018-09-16T08:13:18.038Z,96080.52
2018-09-16T08:15:46.667Z,96081.50
2018-09-16T08:18:15.359Z,96079.36
2018-09-16T08:20:44.053Z,96078.67
2018-09-16T08:23:12.791Z,96076.91
2018-09-16T08:25:41.532Z,96077.56
2018-09-16T08:28:10.228Z,96077.73
2018-09-16T08:30:38.888Z,96076.55
2018-09-16T08:33:07.571Z,96078.56
2018-09-16T08:35:36.239Z,96074.38
2018-09-16T08:38:04.941Z,96070.00
2018-09-16T08:40:34.060Z,96062.22
2018-09-16T08:43:02.816Z,96053.46
2018-09-16T08:45:31.959Z,96059.03
2018-09-16T08:48:00.650Z,96044.84
2018-09-16T08:50:29.677Z,96052.53
2018-09-16T08:52:58.799Z,96049.86
2018-09-16T08:55:27.839Z,96036.75
2018-09-16T08:57:56.680Z,96041.35
2018-09-16T09:00:25.864Z,96040.84
2018-09-16T09:02:54.784Z,96041.34
2018-09-16T09:05:23.899Z,96035.63
2018-09-16T09:07:56.495Z,96035.62
2018-09-16T09:10:25.200Z,96041.69
2018-09-16T09:12:53.958Z,96032.45
2018-09-16T09:15:23.385Z,96042.93
2018-09-16T09:17:52.594Z,96041.01
2018-09-16T09:20:21.344Z,96032.03
2018-09-16T09:22:50.257Z,96028.35
2018-09-16T09:25:19.285Z,96029.84
2018-09-16T09:27:47.975Z,96027.41
2018-09-16T09:30:21.512Z,96036.70
2018-09-16T09:32:50.200Z,96029.94
2018-09-16T09:35:19.147Z,96024.52
2018-09-16T09:37:48.860Z,96024.03
2018-09-16T09:40:17.875Z,96010.86
2018-09-16T09:42:46.983Z,96025.27
2018-09-16T09:45:15.731Z,96020.80
2018-09-16T09:47:44.650Z,96018.80
2018-09-16T09:50:13.364Z,96019.70
2018-09-16T09:52:42.827Z,96011.60
2018-09-16T09:55:11.825Z,96012.08
2018-09-16T09:57:41.224Z,96012.26
2018-09-16T10:00:12.788Z,96010.91
2018-09-16T10:02:41.512Z,96014.09
2018-09-16T10:05:10.767Z,96007.72
2018-09-16T10:07:39.679Z,96011.73
2018-09-16T10:10:09.361Z,96004.12
2018-09-16T10:12:38.425Z,96006.20
2018-09-16T10:15:07.327Z,96019.73
2018-09-16T10:17:36.619Z,96005.86
2018-09-16T10:20:05.669Z,96016.00
2018-09-16T10:22:34.790Z,96004.98
2018-09-16T10:25:04.769Z,96011.23
2018-09-16T10:28:07.440Z,96003.14
2018-09-16T10:30:43.383Z,96011.32
2018-09-16T10:33:12.088Z,96005.53
2018-09-16T10:35:41.261Z,96012.30
2018-09-16T10:38:11.191Z,96012.33
2018-09-16T10:40:40.207Z,96005.52
2018-09-16T10:43:08.937Z,96013.80
2018-09-16T10:45:38.086Z,96014.39
2018-09-16T10:48:06.998Z,96007.79
2018-09-16T10:50:36.047Z,96009.44
2018-09-16T10:53:05.299Z,96001.89
2018-09-16T10:55:34.184Z,96006.53
2018-09-16T10:58:03.028Z,96008.33
2018-09-16T11:00:31.706Z,96006.78
2018-09-16T11:03:00.801Z,95805.94
2018-09-16T11:05:29.624Z,95997.67
2018-09-16T11:07:58.397Z,95991.84
2018-09-16T11:10:27.151Z,95993.89
2018-09-16T11:12:55.837Z,95998.91
2018-09-16T11:15:24.503Z,96000.78
2018-09-16T11:17:53.458Z,96002.72
2018-09-16T11:20:22.128Z,96001.05
2018-09-16T11:22:50.856Z,96001.03
2018-09-16T11:25:19.558Z,95998.86
2018-09-16T11:28:15.588Z,95997.48
2018-09-16T11:30:44.464Z,95994.76
2018-09-16T11:33:28.085Z,96000.45
2018-09-16T11:35:56.816Z,95992.02
2018-09-16T11:38:25.513Z,95996.88
2018-09-16T11:40:54.236Z,95986.20
2018-09-16T11:43:23.006Z,95988.38
2018-09-16T11:45:52.040Z,95981.09
2018-09-16T11:48:40.708Z,95983.89
2018-09-16T11:51:10.216Z,95981.00
2018-09-16T11:53:39.363Z,95975.97
2018-09-16T11:56:08.134Z,95974.98
2018-09-16T11:58:36.911Z,95982.36
2018-09-16T12:01:18.679Z,95977.51
2018-09-16T12:03:47.400Z,95978.05
2018-09-16T12:06:16.175Z,95972.97
2018-09-16T12:08:45.119Z,95972.33
2018-09-16T12:11:14.085Z,95969.90
2018-09-16T12:13:42.872Z,95878.13
2018-09-16T12:16:11.693Z,95970.83
2018-09-16T12:18:40.536Z,95968.60
2018-09-16T12:21:09.716Z,95958.96
2018-09-16T12:23:42.656Z,95348.48
2018-09-16T12:26:12.399Z,95959.53
2018-09-16T12:28:41.540Z,95962.95
2018-09-16T12:31:10.412Z,95959.33
2018-09-16T12:33:39.243Z,95955.42
2018-09-16T12:36:09.351Z,95963.84
2018-09-16T12:38:38.216Z,95960.61
2018-09-16T12:41:07.073Z,95954.72
2018-09-16T12:43:37.066Z,95948.25
2018-09-16T12:46:06.351Z,95953.98
2018-09-16T12:48:35.424Z,95958.58
2018-09-16T12:51:04.148Z,95958.38
2018-09-16T12:53:34.272Z,95953.02
2018-09-16T12:56:02.951Z,95945.41
2018-09-16T12:58:31.603Z,95952.72
2018-09-16T13:01:01.215Z,95945.67
2018-09-16T13:03:29.899Z,95947.84
2018-09-16T13:05:58.575Z,95943.81
2018-09-16T13:08:27.302Z,95951.81
2018-09-16T13:10:56.370Z,95944.20
2018-09-16T13:13:25.080Z,95952.81
2018-09-16T13:15:53.761Z,95950.38
2018-09-16T13:18:22.466Z,95945.03
2018-09-16T13:20:51.173Z,95945.28
2018-09-16T13:23:22.845Z,95947.69
2018-09-16T13:25:51.846Z,95946.22
2018-09-16T13:28:20.695Z,95945.00
2018-09-16T13:30:49.643Z,95951.09
2018-09-16T13:33:18.266Z,95939.19
2018-09-16T13:35:47.113Z,95939.40
2018-09-16T13:38:16.056Z,95950.47
2018-09-16T13:40:44.763Z,95942.45
2018-09-16T13:43:13.601Z,95942.53
2018-09-16T13:45:42.537Z,95946.32
2018-09-16T13:48:11.268Z,95942.89
2018-09-16T13:50:49.971Z,95941.57
2018-09-16T13:53:18.751Z,95941.57
2018-09-16T13:55:47.507Z,95939.27
2018-09-16T13:58:20.400Z,95935.41
2018-09-16T14:00:49.191Z,95935.75
2018-09-16T14:03:17.857Z,95939.90
2018-09-16T14:05:46.594Z,95937.70
2018-09-16T14:08:18.452Z,95942.88
2018-09-16T14:10:48.391Z,95934.81
2018-09-16T14:13:17.650Z,95937.69
2018-09-16T14:15:46.375Z,95946.60
2018-09-16T14:18:15.168Z,95947.12
2018-09-16T14:20:44.277Z,95949.71
2018-09-16T14:23:13.037Z,95946.60
2018-09-16T14:25:41.778Z,95949.78
2018-09-16T14:28:10.473Z,95949.71
2018-09-16T14:30:39.158Z,95955.68
2018-09-16T14:33:07.970Z,95952.62
2018-09-16T14:35:37.617Z,95954.37
2018-09-16T14:38:06.337Z,95951.03
2018-09-16T14:40:35.274Z,95950.84
2018-09-16T14:43:03.974Z,95957.57
2018-09-16T14:45:32.692Z,95957.06
2018-09-16T14:48:01.379Z,95957.50
2018-09-16T14:50:30.079Z,95946.28
2018-09-16T14:52:58.788Z,95948.69
2018-09-16T14:55:27.724Z,95947.11
2018-09-16T14:57:56.705Z,95947.33
2018-09-16T15:00:27.823Z,95947.42
2018-09-16T15:02:56.652Z,95943.53
2018-09-16T15:05:25.406Z,95938.86
2018-09-16T15:07:54.286Z,95946.15
2018-09-16T15:10:37.527Z,95779.48
2018-09-16T15:13:06.685Z,95940.30
2018-09-16T15:15:35.376Z,95946.03
2018-09-16T15:18:04.117Z,95944.91
2018-09-16T15:20:32.883Z,95950.27
2018-09-16T15:23:01.660Z,95954.20
2018-09-16T15:25:30.372Z,95951.08
2018-09-16T15:27:59.114Z,95957.80
2018-09-16T15:30:27.846Z,95953.08
2018-09-16T15:32:56.817Z,95959.34
2018-09-16T15:35:26.522Z,95953.41
2018-09-16T15:37:55.723Z,95956.91
2018-09-16T15:40:24.432Z,95953.98
2018-09-16T15:42:53.431Z,95960.09
2018-09-16T15:45:22.124Z,95958.92
2018-09-16T15:47:50.853Z,95967.03
2018-09-16T15:50:20.161Z,95959.77
2018-09-16T15:52:49.169Z,95969.83
2018-09-16T15:55:17.946Z,95970.88
2018-09-16T15:57:46.568Z,95974.47
2018-09-16T16:00:15.341Z,95974.16
2018-09-16T16:02:44.163Z,95971.22
2018-09-16T16:05:13.094Z,95979.31
2018-09-16T16:07:41.788Z,95982.68
2018-09-16T16:10:10.871Z,95983.67
2018-09-16T16:12:39.604Z,95993.33
2018-09-16T16:15:08.345Z,95990.98
2018-09-16T16:17:37.026Z,95996.49
2018-09-16T16:20:05.803Z,95995.72
2018-09-16T16:22:34.508Z,95987.66
2018-09-16T16:25:03.759Z,95988.84
2018-09-16T16:27:33.425Z,95987.67
2018-09-16T16:30:05.266Z,95982.17
2018-09-16T16:32:33.943Z,95989.45
2018-09-16T16:35:03.618Z,95988.86
2018-09-16T16:37:32.377Z,95986.89
2018-09-16T16:40:01.124Z,95990.03
2018-09-16T16:42:29.891Z,95992.59
2018-09-16T16:44:58.657Z,95989.45
2018-09-16T16:47:27.320Z,95991.44
2018-09-16T16:49:56.073Z,95999.50
2018-09-16T16:52:24.742Z,95993.20
2018-09-16T16:54:53.450Z,95981.02
2018-09-16T16:57:22.120Z,96001.86
2018-09-16T16:59:50.773Z,95999.28
2018-09-16T17:02:19.411Z,96003.20
2018-09-16T17:04:48.147Z,96005.97
2018-09-16T17:07:16.886Z,96004.39
2018-09-16T17:09:45.539Z,96007.55
2018-09-16T17:12:14.209Z,96011.45
2018-09-16T17:14:42.878Z,96022.22
2018-09-16T17:17:11.613Z,96026.14
2018-09-16T17:19:40.299Z,96035.98
2018-09-16T17:22:09.021Z,96027.12
2018-09-16T17:24:37.687Z,96030.86
2018-09-16T17:27:06.471Z,96042.05
2018-09-16T17:29:35.133Z,96044.00
2018-09-16T17:32:04.037Z,96043.00
2018-09-16T17:34:32.832Z,96049.28
2018-09-16T17:37:01.541Z,96053.80
2018-09-16T17:39:30.222Z,96059.67
2018-09-16T17:41:58.924Z,96066.55
2018-09-16T17:44:27.664Z,96068.66
2018-09-16T17:46:56.706Z,96063.56
2018-09-16T17:49:25.780Z,96068.84
2018-09-16T17:51:54.516Z,96076.27
2018-09-16T17:54:23.553Z,96080.20
2018-09-16T17:56:52.436Z,96084.14
2018-09-16T17:59:21.170Z,96081.39
2018-09-16T18:01:49.867Z,96081.97
2018-09-16T18:04:18.570Z,96083.93
2018-09-16T18:06:47.363Z,96094.09
2018-09-16T18:09:16.063Z,96093.30
2018-09-16T18:11:44.932Z,96100.74
2018-09-16T18:14:13.646Z,96105.44
2018-09-16T18:16:42.620Z,96110.33
2018-09-16T18:19:11.282Z,95949.88
2018-09-16T18:21:39.938Z,96112.52
2018-09-16T18:24:08.762Z,96114.86
2018-09-16T18:26:37.664Z,96118.40
2018-09-16T18:29:06.472Z,96119.95
2018-09-16T18:31:35.193Z,96118.34
2018-09-16T18:34:04.730Z,96119.50
2018-09-16T18:36:33.581Z,96126.14
2018-09-16T18:39:02.333Z,96121.76
2018-09-16T18:41:31.010Z,96117.05
2018-09-16T18:43:59.680Z,96121.75
2018-09-16T18:46:28.386Z,96131.88
2018-09-16T18:48:57.084Z,96132.84
2018-09-16T18:51:25.792Z,96128.33
2018-09-16T18:53:54.499Z,96131.23
2018-09-16T18:56:23.224Z,96133.77
2018-09-16T18:58:52.490Z,96129.25
2018-09-16T19:01:21.208Z,96132.55
2018-09-16T19:03:50.218Z,96130.51
2018-09-16T19:06:18.882Z,96135.81
2018-09-16T19:08:47.539Z,96133.02
2018-09-16T19:11:16.261Z,96130.17
2018-09-16T19:13:45.299Z,96130.95
2018-09-16T19:16:14.112Z,96137.37
2018-09-16T19:18:42.853Z,96134.04
2018-09-16T19:21:11.774Z,96135.36
2018-09-16T19:23:41.345Z,96137.47
2018-09-16T19:26:10.783Z,96133.75
2018-09-16T19:28:39.549Z,96132.94
2018-09-16T19:31:09.664Z,96140.31
2018-09-16T19:33:38.556Z,96135.94
2018-09-16T19:36:07.540Z,96139.83
2018-09-16T19:38:36.268Z,96140.84
2018-09-16T19:41:24.050Z,96137.94
2018-09-16T19:43:52.719Z,96143.61
2018-09-16T19:46:21.472Z,96141.20
2018-09-16T19:48:50.224Z,96133.12
2018-09-16T19:51:19.203Z,96138.84
2018-09-16T19:53:48.233Z,96131.41
2018-09-16T19:56:16.991Z,96126.91
2018-09-16T19:58:45.694Z,96134.73
2018-09-16T20:01:14.379Z,96130.21
2018-09-16T20:03:43.095Z,96127.55
2018-09-16T20:06:11.794Z,96129.72
2018-09-16T20:08:40.488Z,96143.59
2018-09-16T20:11:09.475Z,96135.15
2018-09-16T20:13:38.150Z,96134.66
2018-09-16T20:16:06.828Z,96142.88
2018-09-16T20:18:35.572Z,96138.30
2018-09-16T20:21:04.719Z,96151.20
2018-09-16T20:23:33.452Z,96146.49
2018-09-16T20:26:02.154Z,96145.29
2018-09-16T20:28:30.875Z,96143.13
2018-09-16T20:30:59.716Z,96143.70
2018-09-16T20:33:28.390Z,96142.14
2018-09-16T20:35:57.047Z,96142.37
2018-09-16T20:38:25.789Z,96136.25
2018-09-16T20:40:54.423Z,96140.11
2018-09-16T20:43:23.091Z,96144.19
2018-09-16T20:45:51.759Z,96146.84
2018-09-16T20:48:20.415Z,96154.20
2018-09-16T20:50:49.055Z,96154.54
2018-09-16T20:53:17.696Z,96157.22
2018-09-16T20:55:46.874Z,96151.86
2018-09-16T20:58:15.597Z,96153.70
2018-09-16T21:00:44.351Z,96160.63
2018-09-16T21:03:13.077Z,96168.73
2018-09-16T21:05:41.793Z,96172.39
2018-09-16T21:08:10.441Z,96172.43
2018-09-16T21:10:39.096Z,96171.71
2018-09-16T21:13:07.820Z,96175.47
2018-09-16T21:15:36.459Z,96177.34
2018-09-16T21:18:05.146Z,96175.47
2018-09-16T21:20:33.798Z,96169.51
2018-09-16T21:23:02.443Z,96171.90
2018-09-16T21:25:31.125Z,96178.44
2018-09-16T21:27:59.805Z,96042.73
2018-09-16T21:30:28.490Z,96178.97
2018-09-16T21:32:57.123Z,96181.58
2018-09-16T21:35:25.795Z,96183.02
2018-09-16T21:37:54.475Z,96179.14
2018-09-16T21:40:23.149Z,96178.36
2018-09-16T21:42:51.803Z,96181.72
2018-09-16T21:45:20.562Z,96185.69
2018-09-16T21:47:49.317Z,96183.23
2018-09-16T21:50:18.062Z,96176.31
2018-09-16T21:52:46.774Z,96179.14
2018-09-16T21:55:15.593Z,96176.27
2018-09-16T21:57:44.300Z,96171.52
2018-09-16T22:00:15.697Z,96165.78
2018-09-16T22:02:44.404Z,96169.23
2018-09-16T22:05:13.202Z,96164.93
2018-09-16T22:07:41.843Z,96158.10
2018-09-16T22:10:10.530Z,96166.47
2018-09-16T22:12:39.263Z,96167.20
2018-09-16T22:15:07.967Z,96169.48
2018-09-16T22:17:36.722Z,96176.96
2018-09-16T22:20:05.438Z,96180.92
2018-09-16T22:22:34.111Z,96179.98
2018-09-16T22:25:02.750Z,96177.95
2018-09-16T22:27:31.381Z,96168.88
2018-09-16T22:30:00.074Z,96174.25
2018-09-16T22:32:28.753Z,96176.25
2018-09-16T22:34:57.408Z,96166.97
2018-09-16T22:37:26.137Z,96171.04
2018-09-16T22:39:54.791Z,96180.30
2018-09-16T22:42:23.479Z,96173.44
2018-09-16T22:44:52.151Z,96179.20
2018-09-16T22:47:20.848Z,96183.52
2018-09-16T22:49:49.540Z,96183.59
2018-09-16T22:52:18.512Z,96184.83
2018-09-16T22:54:47.214Z,96184.45
2018-09-16T22:57:15.878Z,96183.75
2018-09-16T22:59:44.789Z,96183.59
2018-09-16T23:02:13.557Z,96180.66
2018-09-16T23:04:42.260Z,96187.53
2018-09-16T23:07:11.364Z,96175.00
2018-09-16T23:09:40.003Z,96174.67
2018-09-16T23:12:08.634Z,96171.27
2018-09-16T23:14:37.265Z,96168.78
2018-09-16T23:17:06.042Z,96170.23
2018-09-16T23:19:34.701Z,96175.56
2018-09-16T23:22:03.403Z,96171.91
2018-09-16T23:24:32.127Z,96171.48
2018-09-16T23:27:00.778Z,96173.52
2018-09-16T23:29:29.491Z,96171.03
2018-09-16T23:31:58.186Z,96175.12
2018-09-16T23:34:26.880Z,96172.84
2018-09-16T23:36:55.568Z,96167.61
2018-09-16T23:39:24.247Z,96177.16
2018-09-16T23:41:53.057Z,96179.64
2018-09-16T23:44:21.795Z,96181.00
2018-09-16T23:46:50.454Z,96177.51
2018-09-16T23:49:19.276Z,96175.79
2018-09-16T23:51:47.932Z,96181.13
2018-09-16T23:54:16.612Z,96190.08
2018-09-16T23:56:45.291Z,96185.44
2018-09-16T23:59:13.965Z,96191.23
